Stockbridge, United Kingdom
Current Conditions -  °F | °C
As of 11:50 PM on Wednesday 26 Nov 2014 (Local Time) from EGVP Reporting Station
Overcast Overcast  
Wind Chill: 45°   Ceiling: 900
Heat Index: 45°   Visibility: 6mi
Dew Point: 45°   Wind: 3mph
Humidity: 100%   Direction: 300°WNW
Pressure: 29.71"   Gusts: NA
Location:  51.15°N, 1.44°W
Report Text: EGVP 262350Z AUTO 30003KT 9999 // OVC009/// 07/07 Q1006
Loading
Personal Weather Stations






























Interactive Weather Map New forecast layout! Learn more

10-Day Weather Forecast

Advertisements
Track Severe Weather on mobile